Flight Track Log - Related Links

Times and Time Zones

All times are in EDT time to prevent confusion due to time zone crossing. See the ASQ4179 flight status page for this flight to view local times or setup timezone preferences in your user account.

Time Position Orientation Groundspeed Altitude Reporting Facility
EDT Latitude Longitude Course Direction KTS MPH feet Rate Location/Type
Mon 06:18:42 AM 35.8664 -78.8164 270° West 169 194 1,200  Level Washington Center
Mon 06:19:42 AM 35.8339 -78.8611 228° Southwest 170 196 3,400 2,331 Climbing Washington Center
Mon 06:20:43 AM 35.8486 -78.9361 284° West 189 217 5,900 2,430 Climbing Washington Center
Mon 06:21:43 AM 35.8756 -79.0142 293° West 212 244 8,300 2,150 Climbing Washington Center
Mon 06:22:43 AM 35.9150 -79.0928 302° West 241 277 10,200 1,700 Climbing Washington Center
Mon 06:23:00 AM 35.8228 -79.3953 262° West  Level FlightAware Approximate
Mon 06:23:43 AM 35.9522 -79.1739 300° West 286 329 11,700  Level Washington Center
Mon 06:24:00 AM 35.8167 -79.5180 270° West  Level FlightAware Approximate
Mon 06:24:45 AM 36.0033 -79.2817 300° West 319 367 13,900  Level Washington Center
Mon 06:25:43 AM 36.0169 -79.3747 280° West 324 373 15,600 1,916 Climbing Washington Center
Mon 06:26:44 AM 35.9842 -79.4833 250° West 301 346 17,700 1,636 Climbing Washington Center
Mon 06:28:28 AM 35.9258 -79.6564 247° West 319 367 20,100 1,244 Climbing Atlanta Center
Mon 06:29:28 AM 35.8919 -79.7581 248° West 319 367 21,100 950 Climbing Atlanta Center
Mon 06:30:28 AM 35.8558 -79.8650 247° West 324 373 22,000 850 Climbing Atlanta Center
Mon 06:31:28 AM 35.8200 -79.9769 248° West 334 384 22,800 850 Climbing Atlanta Center
Mon 06:32:28 AM 35.7800 -80.0917 247° West 348 400 23,700 850 Climbing Atlanta Center
Mon 06:33:28 AM 35.7456 -80.1958 248° West 360 414 24,500 900 Climbing Atlanta Center
Mon 06:34:28 AM 35.7017 -80.3256 247° West 372 428 25,500 850 Climbing Atlanta Center
Mon 06:35:28 AM 35.6675 -80.4344 249° West 383 441 26,200 800 Climbing Atlanta Center
Mon 06:36:28 AM 35.6228 -80.5514 245° Southwest 377 434 27,100 900 Climbing Atlanta Center
Mon 06:37:28 AM 35.5758 -80.6608 242° Southwest 372 428 28,000 900 Climbing Atlanta Center
Mon 06:38:28 AM 35.5286 -80.7722 243° Southwest 371 427 28,900 950 Climbing Atlanta Center
Mon 06:39:28 AM 35.4858 -80.8889 246° West 371 427 29,900 1,000 Climbing Atlanta Center
Mon 06:40:28 AM 35.4686 -81.0297 262° West 379 436 30,900 950 Climbing Atlanta Center
Mon 06:41:28 AM 35.4531 -81.1631 262° West 392 451 31,800 1,100 Climbing Atlanta Center
Mon 06:42:28 AM 35.4414 -81.2933 264° West 392 451 33,100 1,300 Climbing Atlanta Center
Mon 06:43:28 AM 35.4275 -81.4186 262° West 386 444 34,400 1,150 Climbing Atlanta Center
Mon 06:44:28 AM 35.4153 -81.5389 263° West 369 425 35,400 800 Climbing Atlanta Center
Mon 06:45:28 AM 35.4050 -81.6436 263° West 363 418 36,000 300 Climbing Atlanta Center
Mon 06:46:28 AM 35.3906 -81.7664 262° West 363 418 36,000  Level Atlanta Center
Mon 06:47:28 AM 35.3783 -81.8939 263° West 372 428 36,000  Level Atlanta Center
Mon 06:48:28 AM 35.3617 -82.0319 262° West 389 448 36,000  Level Atlanta Center
Mon 06:49:28 AM 35.3472 -82.1672 263° West 407 468 36,000  Level Atlanta Center
Mon 06:50:28 AM 35.3286 -82.3231 262° West 418 481 36,000  Level Atlanta Center
Mon 06:51:28 AM 35.3117 -82.4633 262° West 430 495 36,000  Level Atlanta Center
Mon 06:52:28 AM 35.2947 -82.5986 261° West 423 487 36,000  Level Atlanta Center
Mon 06:53:28 AM 35.2775 -82.7386 261° West 423 487 36,000  Level Atlanta Center
Mon 06:54:28 AM 35.2622 -82.8739 262° West 415 478 36,000  Level Atlanta Center
Mon 06:55:28 AM 35.2425 -83.0139 260° West 412 474 36,000  Level Atlanta Center
Mon 06:56:28 AM 35.2269 -83.1539 262° West 412 474 36,000  Level Atlanta Center
Mon 06:57:28 AM 35.2131 -83.2761 262° West 412 474 36,000  Level Atlanta Center
Mon 06:58:28 AM 35.1950 -83.4083 261° West 407 468 36,000  Level Atlanta Center
Mon 06:59:28 AM 35.1769 -83.5483 261° West 412 474 36,000  Level Atlanta Center
Mon 07:00:28 AM 35.1586 -83.6831 261° West 412 474 36,000  Level Atlanta Center
Mon 07:01:28 AM 35.1256 -83.8128 253° West 407 468 36,000  Level Atlanta Center
Mon 07:02:28 AM 35.0736 -83.9297 242° Southwest 402 463 36,000  Level Atlanta Center
Mon 07:03:28 AM 35.0214 -84.0489 242° Southwest 402 463 36,000  Level Atlanta Center
Mon 07:04:28 AM 34.9608 -84.1756 240° Southwest 402 463 36,000  Level Atlanta Center
Mon 07:05:28 AM 34.9083 -84.2947 242° Southwest 397 457 36,000  Level Atlanta Center
Mon 07:06:28 AM 34.8561 -84.4183 243° Southwest 405 466 36,000  Level Atlanta Center
Mon 07:07:28 AM 34.7972 -84.5344 238° Southwest 405 466 36,000  Level Atlanta Center
Mon 07:08:28 AM 34.7422 -84.6556 241° Southwest 410 472 36,000  Level Atlanta Center
Mon 07:09:28 AM 34.6875 -84.7739 241° Southwest 410 472 36,000  Level Atlanta Center
Mon 07:10:28 AM 34.6386 -84.8819 241° Southwest 404 465 36,000  Level Atlanta Center
Mon 07:11:28 AM 34.5836 -85.0025 241° Southwest 409 471 36,000  Level Atlanta Center
Mon 07:12:28 AM 34.5283 -85.1206 240° Southwest 409 471 36,000  Level Atlanta Center
Mon 07:13:28 AM 34.4625 -85.2531 239° Southwest 414 476 36,000  Level Atlanta Center
Mon 07:14:28 AM 34.4069 -85.3731 241° Southwest 414 476 36,000  Level Atlanta Center
Mon 07:15:28 AM 34.3597 -85.4831 243° Southwest 414 476 36,000  Level Atlanta Center
Mon 07:16:28 AM 34.3019 -85.6003 239° Southwest 408 470 36,000  Level Atlanta Center
Mon 07:17:28 AM 34.2439 -85.7225 240° Southwest 414 476 36,000  Level Atlanta Center
Mon 07:18:28 AM 34.1881 -85.8344 239° Southwest 405 466 36,000  Level Atlanta Center
Mon 07:19:28 AM 34.1281 -85.9511 238° Southwest 399 459 36,000  Level Atlanta Center
Mon 07:20:28 AM 34.0739 -86.0703 241° Southwest 399 459 36,000  Level Atlanta Center
Mon 07:21:28 AM 34.0156 -86.1892 239° Southwest 404 465 36,000  Level Atlanta Center
Mon 07:22:28 AM 33.9592 -86.3053 240° Southwest 404 465 36,000  Level Atlanta Center
Mon 07:23:28 AM 33.9006 -86.4239 239° Southwest 404 465 36,000  Level Atlanta Center
Mon 07:24:28 AM 33.8439 -86.5425 240° Southwest 404 465 36,000  Level Atlanta Center
Mon 07:25:28 AM 33.7872 -86.6583 240° Southwest 409 471 36,000  Level Atlanta Center
Mon 07:26:28 AM 33.7283 -86.7739 239° Southwest 409 471 36,000  Level Atlanta Center
Mon 07:27:28 AM 33.6736 -86.8919 241° Southwest 409 471 36,000  Level Atlanta Center
Mon 07:28:28 AM 33.6289 -87.0150 246° West 409 471 36,000  Level Atlanta Center
Mon 07:29:28 AM 33.5817 -87.1506 247° West 409 471 36,000  Level Atlanta Center
Mon 07:31:02 AM 33.5142 -87.3500 248° West 400 460 36,000  Level Memphis Center
Mon 07:32:02 AM 33.4714 -87.4733 247° West 400 460 36,000  Level Memphis Center
Mon 07:33:02 AM 33.4283 -87.5994 248° West 400 460 36,000  Level Memphis Center
Mon 07:34:02 AM 33.3850 -87.7275 248° West 405 466 36,000  Level Memphis Center
Mon 07:35:02 AM 33.3417 -87.8508 247° West 405 466 36,000  Level Memphis Center
Mon 07:36:02 AM 33.3003 -87.9761 248° West 405 466 36,000  Level Memphis Center
Mon 07:37:02 AM 33.2547 -88.1017 247° West 405 466 36,000  Level Memphis Center
Mon 07:38:02 AM 33.2192 -88.2142 249° West 405 466 36,000  Level Memphis Center
Mon 07:39:02 AM 33.1753 -88.3344 246° West 405 466 36,000  Level Memphis Center
Mon 07:40:02 AM 33.1311 -88.4569 247° West 405 466 36,000  Level Memphis Center
Mon 07:41:02 AM 33.0872 -88.5819 247° West 405 466 36,000  Level Memphis Center
Mon 07:42:02 AM 33.0431 -88.7067 247° West 405 466 36,000  Level Memphis Center
Mon 07:43:02 AM 32.9986 -88.8289 247° West 405 466 36,000  Level Memphis Center
Mon 07:44:02 AM 32.9561 -88.9486 247° West 405 466 36,000  Level Memphis Center
Mon 07:45:02 AM 32.9117 -89.0731 247° West 399 459 36,000  Level Memphis Center
Mon 07:46:02 AM 32.8689 -89.1947 247° West 399 459 36,000  Level Memphis Center
Mon 07:47:02 AM 32.8219 -89.3167 245° Southwest 399 459 36,000  Level Memphis Center
Mon 07:48:02 AM 32.7769 -89.4381 246° West 399 459 36,000  Level Memphis Center
Mon 07:49:02 AM 32.7319 -89.5622 247° West 399 459 36,000  Level Memphis Center
Mon 07:50:02 AM 32.6867 -89.6833 246° West 399 459 36,000  Level Memphis Center
Mon 07:51:02 AM 32.6414 -89.8072 247° West 399 459 36,000  Level Memphis Center
Mon 07:52:02 AM 32.5961 -89.9283 246° West 399 459 36,000  Level Memphis Center
Mon 07:53:02 AM 32.5506 -90.0517 246° West 399 459 36,000  Level Memphis Center
Mon 07:54:02 AM 32.5028 -90.1725 245° Southwest 399 459 36,000  Level Memphis Center
Mon 07:55:02 AM 32.4444 -90.2883 239° Southwest 405 466 36,000  Level Memphis Center
Mon 07:56:02 AM 32.3817 -90.4042 237° Southwest 416 479 36,000  Level Memphis Center
Mon 07:57:02 AM 32.3233 -90.5194 239° Southwest 422 486 36,000  Level Memphis Center
Mon 07:58:02 AM 32.2625 -90.6325 238° Southwest 422 486 36,000  Level Memphis Center
Mon 07:59:02 AM 32.2036 -90.7503 239° Southwest 422 486 36,000  Level Memphis Center
Mon 08:00:14 AM 32.1303 -90.8861 238° Southwest 415 478 36,000  Level Houston Center
Mon 08:01:15 AM 32.0708 -91.0014 239° Southwest 414 476 36,000  Level Houston Center
Mon 08:02:16 AM 32.0069 -91.1172 237° Southwest 421 484 36,000  Level Houston Center
Mon 08:03:17 AM 31.9450 -91.2311 237° Southwest 416 479 36,000  Level Houston Center
Mon 08:04:18 AM 31.8825 -91.3481 238° Southwest 421 484 36,000  Level Houston Center
Mon 08:05:20 AM 31.8072 -91.4872 238° Southwest 424 488 36,000  Level Houston Center
Mon 08:06:21 AM 31.7456 -91.6031 238° Southwest 420 483 36,000  Level Houston Center
Mon 08:07:22 AM 31.6833 -91.7200 238° Southwest 422 486 36,000  Level Houston Center
Mon 08:08:23 AM 31.6228 -91.8361 239° Southwest 419 482 36,000  Level Houston Center
Mon 08:09:24 AM 31.5586 -91.9519 237° Southwest 420 483 36,000  Level Houston Center
Mon 08:10:25 AM 31.4972 -92.0608 237° Southwest 426 490 36,000  Level Houston Center
Mon 08:11:26 AM 31.4331 -92.1775 237° Southwest 425 489 36,000  Level Houston Center
Mon 08:12:28 AM 31.3697 -92.2942 238° Southwest 427 491 36,000  Level Houston Center
Mon 08:13:29 AM 31.2919 -92.4336 237° Southwest 429 494 36,000  Level Houston Center
Mon 08:14:30 AM 31.2264 -92.5514 237° Southwest 432 497 36,000  Level Houston Center
Mon 08:15:32 AM 31.1622 -92.6694 238° Southwest 432 497 36,000  Level Houston Center
Mon 08:16:33 AM 31.0950 -92.7867 236° Southwest 434 499 36,000  Level Houston Center
Mon 08:17:34 AM 31.0292 -92.9056 237° Southwest 436 502 36,000  Level Houston Center
Mon 08:18:35 AM 30.9628 -93.0247 237° Southwest 439 505 36,000  Level Houston Center
Mon 08:19:37 AM 30.8956 -93.1431 237° Southwest 440 506 36,000 -49 Level Houston Center
Mon 08:20:38 AM 30.8281 -93.2622 237° Southwest 442 509 35,900 -1,131 Descending Houston Center
Mon 08:21:39 AM 30.7486 -93.4050 237° Southwest 441 507 33,700 -2,195 Descending Houston Center
Mon 08:22:41 AM 30.6828 -93.5211 237° Southwest 437 503 31,400 -2,195 Descending Houston Center
Mon 08:23:42 AM 30.6164 -93.6386 237° Southwest 438 504 29,200 -2,146 Descending Houston Center
Mon 08:24:44 AM 30.5475 -93.7569 236° Southwest 446 513 27,000 -2,146 Descending Houston Center
Mon 08:25:45 AM 30.4789 -93.8764 236° Southwest 450 518 24,800 -2,311 Descending Houston Center
Mon 08:26:46 AM 30.4119 -93.9928 236° Southwest 442 509 22,300 -2,878 Descending Houston Center
Mon 08:27:48 AM 30.3494 -94.1006 236° Southwest 411 473 18,900 -3,857 Descending Houston Center
Mon 08:28:38 AM 30.2858 -94.2100 236° Southwest 385 443 15,100 -3,268 Descending Houston Center
Mon 08:29:51 AM 30.2186 -94.3267 236° Southwest 382 440 12,200 -1,567 Descending Houston Center
Mon 08:30:52 AM 30.1786 -94.4228 244° Southwest 337 388 11,600 -735 Descending Houston Center
Mon 08:31:29 AM 30.1522 -94.4939 247° West 338 389 11,000 -1,047 Descending Houston Center
Mon 08:32:18 AM 30.1256 -94.5650 247° West 309 356 10,100 -1,034 Descending Houston Center
Mon 08:32:56 AM 30.1044 -94.6214 247° West 308 354 9,500 -970 Descending Houston Center
Mon 08:33:57 AM 30.0750 -94.7031 247° West 287 330 8,500 -976 Descending Houston Center
Mon 08:34:59 AM 30.0411 -94.7864 245° Southwest 286 329 7,500 -968 Descending Houston Center
Mon 08:36:01 AM 30.0114 -94.8678 247° West 280 322 6,500 -878 Descending Houston Center
Mon 08:37:02 AM 29.9908 -94.9500 254° West 270 311 5,700 -780 Descending Houston Center
Mon 08:38:04 AM 29.9944 -95.0350 273° West 268 308 4,900 -1,161 Descending Houston Center
Mon 08:39:06 AM 29.9933 -95.1358 269° West 265 305 3,300 -1,366 Descending Houston Center
Mon 08:40:07 AM 29.9942 -95.2117 271° West 248 285 2,100 -1,180 Descending Houston Center

Login

Don't have an account? Register now (free) for customized features, flight alerts, and more!